Metar Cercanos

 

LEPA - Palma De Mallorc, Spain
Distance from station: ONO 38km
Actualización: 15/08/2018 02:30
Few Clouds
Few Clouds
 Viento del E
Viento: E 2 km/h
Temperatura: 23°C
Rocío: 20°C
Humedad: 83%
Barómetro: 1018 hPa
Clouds: Few Clouds
Visibility: 10 km
Cloud details: Few Clouds 853 m
2018/08/15 00:30 LEPA 150030Z 10001KT 9999 FEW028 23/20 Q1018 NOSIG
LEMH - Mahon/Menorca Is, Spain
Distance from station: ENE 105km
Actualización: 15/08/2018 02:30
Despejado
Despejado
 Viento del N
Viento: N 11 km/h
Temperatura: 22°C
Rocío: 16°C
Humedad: 69%
Barómetro: 1017 hPa
Clouds: Despejado
Visibility: 10 km
2018/08/15 00:30 LEMH 150030Z AUTO 36006KT 9999 NCD 22/16 Q1017
 
LEIB - Ibiza/Es Codola, Spain
Distance from station: OSO 165km
Actualización: 15/08/2018 02:30
Muy nuboso
Muy nuboso
 Viento del E
Viento: E 17 km/h
Temperatura: 26°C
Rocío: 23°C
Humedad: 84%
Barómetro: 1017 hPa
Clouds: Muy nuboso
Visibility: 10 km
Cloud details: Few Clouds 274 m
Parcialmente nuboso 457 m
Muy nuboso 610 m
2018/08/15 00:30 LEIB 150030Z 08009KT 050V110 9999 FEW009 SCT015 BKN020 26/23 Q1017 NOSIG
LEBL - Barcelona Airpor, Spain
Distance from station: NNO 225km
Actualización: 15/08/2018 02:30
Few Clouds
Few Clouds
 Viento del SSO
Viento: SSO 4 km/h
Temperatura: 24°C
Rocío: 20°C
Humedad: 78%
Barómetro: 1018 hPa
Clouds: Few Clouds
Visibility: 10 km
Cloud details: Few Clouds 1067 m
2018/08/15 00:30 LEBL 150030Z 21002KT 9999 FEW035 24/20 Q1018 NOSIG
 
LEVC - Valencia (civ/Mi, Spain
Distance from station: NO 188km
Actualización: 15/08/2018 02:30
Few Clouds
Few Clouds
 Viento del varies
Viento: varies 4 km/h
Temperatura: 25°C
Rocío: 21°C
Humedad: 79%
Barómetro: 1018 hPa
Clouds: Few Clouds
Visibility: 10 km
Cloud details: Few Clouds 762 m
2018/08/15 00:30 LEVC 150030Z VRB02KT 9999 FEW025 25/21 Q1018 NOSIG
LEGE - Gerona/Costa Bra, Spain
Distance from station: N 276km
Actualización: 15/08/2018 02:30
Parcialmente nuboso
Parcialmente nuboso
 Viento del calm
Viento: Calma
Temperatura: 19°C
Rocío: 18°C
Humedad: 94%
Barómetro: 1018 hPa
Clouds: Parcialmente nuboso
Visibility: 10 km
Cloud details: Parcialmente nuboso 1372 m
2018/08/15 00:30 LEGE 150030Z 00000KT 9999 SCT045 19/18 Q1018
 
LEAL - Alicante/El Alte, Spain
Distance from station: OSO 344km
Actualización: 15/08/2018 02:30
Parcialmente nuboso
Parcialmente nuboso
 Viento del N
Viento: N 6 km/h
Temperatura: 26°C
Rocío: 23°C
Humedad: 84%
Barómetro: 1017 hPa
Clouds: Parcialmente nuboso
Visibility: 10 km
Cloud details: Parcialmente nuboso 549 m
2018/08/15 00:30 LEAL 150030Z 36003KT 9999 SCT018 26/23 Q1017 NOSIG
LEAM - Almeria Airport, Spain
Distance from station: SSO 56km
Actualización: 15/08/2018 02:30
Despejado
Despejado
 Viento del calm
Viento: Calma
Temperatura: 26°C
Rocío: 22°C
Humedad: 79%
Barómetro: 1016 hPa
Clouds: Despejado
Visibility: 10 km
2018/08/15 00:30 LEAM 150030Z AUTO 00000KT 9999 NCD 26/22 Q1016
 
LEZG - Zaragoza (mil/Ci, Spain
Distance from station: NO 431km
Actualización: 15/08/2018 02:30
Despejado
Despejado
 Viento del ONO
Viento: ONO 30 km/h
Temperatura: 19°C
Rocío: 13°C
Humedad: 68%
Barómetro: 1020 hPa
Resumen: Despejado
Visibility: greater than 10 km
2018/08/15 00:30 LEZG 150030Z 29016KT CAVOK 19/13 Q1020
LEMD - Madrid/Barajas, Spain
Distance from station: ONO 234km
Actualización: 15/08/2018 02:30
Despejado
Despejado
 Viento del N
Viento: N 11 km/h
Temperatura: 22°C
Rocío: 10°C
Humedad: 47%
Barómetro: 1019 hPa
Resumen: Despejado
Visibility: greater than 10 km
2018/08/15 00:30 LEMD 150030Z 35006KT CAVOK 22/10 Q1019 NOSIG
 
LEGR - Granada Airport, Spain
Distance from station: OSO 62km
Actualización: 15/08/2018 02:30
Despejado
Despejado
 Viento del calm
Viento: Calma
Temperatura: 22°C
Rocío: 12°C
Humedad: 53%
Barómetro: 1018 hPa
Clouds: Despejado
Visibility: 10 km
2018/08/15 00:30 LEGR 150030Z AUTO 00000KT 9999 NCD 22/12 Q1018
LEMG - Malaga (civ/Mil), Spain
Distance from station: OSO 227km
Actualización: 15/08/2018 02:30
Despejado
Despejado
 Viento del varies
Viento: varies 2 km/h
Temperatura: 24°C
Rocío: 20°C
Humedad: 78%
Barómetro: 1016 hPa
Resumen: Despejado
Visibility: greater than 10 km
2018/08/15 00:30 LEMG 150030Z VRB01KT CAVOK 24/20 Q1016 NOSIG
 
LEZL - Sevilla (civ/Mil, Spain
Distance from station: S 318km
Actualización: 15/08/2018 02:30
Despejado
Despejado
 Viento del S
Viento: S 11 km/h
Temperatura: 20°C
Rocío: 17°C
Humedad: 83%
Barómetro: 1016 hPa
Resumen: Despejado
Visibility: greater than 10 km
2018/08/15 00:30 LEZL 150030Z 18006KT CAVOK 20/17 Q1016 NOSIG
LEVT - Vitoria, Spain
Distance from station: NO 226km
Actualización: 15/08/2018 02:30
Muy nuboso
Muy nuboso
 Viento del ONO
Viento: ONO 6 km/h
Temperatura: 15°C
Rocío: 13°C
Humedad: 88%
Barómetro: 1024 hPa
Clouds: Muy nuboso
Visibility: 10 km
Cloud details: Few Clouds 610 m
Muy nuboso 975 m
2018/08/15 00:30 LEVT 150030Z 30003KT 9999 FEW020 BKN032 15/13 Q1024
 
LEBB - Bilbao/Sondica, Spain
Distance from station: NNO 235km
Actualización: 15/08/2018 02:30
Muy nuboso
Muy nuboso
 Viento del varies
Viento: varies 2 km/h
Temperatura: 19°C
Rocío: 18°C
Humedad: 94%
Barómetro: 1023 hPa
Clouds: Muy nuboso
Visibility: 10 km
Cloud details: Muy nuboso 1433 m
2018/08/15 00:30 LEBB 150030Z AUTO VRB01KT 9999 BKN047 19/18 Q1023
LESO - San Sebastian/Fu, Spain
Distance from station: N 231km
Actualización: 15/08/2018 02:30
Parcialmente nuboso
Parcialmente nuboso
 Viento del varies
Viento: varies 4 km/h
Temperatura: 19°C
Rocío: 17°C
Humedad: 88%
Barómetro: 1022 hPa
Clouds: Parcialmente nuboso
Visibility: 10 km
Cloud details: Few Clouds 701 m
Parcialmente nuboso 1463 m
2018/08/15 00:30 LESO 150030Z AUTO VRB02KT 9999 FEW023/// SCT048/// 19/17 Q1022
 
LEVD - Valladolid(Mil/C, Spain
Distance from station: ONO 239km
Actualización: 14/08/2018 21:30
NOT Current
Despejado
Despejado
 Viento del ENE
Viento: ENE 13 km/h
Temperatura: 21°C
Rocío: 9°C
Humedad: 46%
Barómetro: 1021 hPa
Resumen: Despejado
Visibility: greater than 10 km
2018/08/14 19:30 LEVD 141930Z 07007KT CAVOK 21/09 Q1021
LESA - Salamanca (civ/M, Spain
Distance from station: ONO 349km
Actualización: 15/08/2018 02:30
Despejado
Despejado
 Viento del ENE
Viento: ENE 9 km/h
Temperatura: 15°C
Rocío: 9°C
Humedad: 68%
Barómetro: 1022 hPa
Clouds: Despejado
Visibility: 10 km
2018/08/15 00:30 LESA 150030Z AUTO 07005KT 030V100 9999 NCD 15/09 Q1022
 
LEXJ - Santander/Paraya, Spain
Distance from station: NNO 247km
Actualización: 15/08/2018 02:30
Cubierto
Cubierto
 Viento del varies
Viento: varies 2 km/h
Temperatura: 19°C
Rocío: 17°C
Humedad: 88%
Barómetro: 1023 hPa
Clouds: Cubierto
Visibility: 8 km
Cloud details: Parcialmente nuboso 823 m
Muy nuboso 1036 m
Cubierto 1250 m
2018/08/15 00:30 LEXJ 150030Z AUTO VRB01KT 8000 SCT027/// BKN034/// OVC041/// 19/17 Q1023
LEAS - Asturias/Aviles, Spain
Distance from station: NO 214km
Actualización: 15/08/2018 02:30

 Viento del SE
Viento: SE 7 km/h
Visibility: 8 km
2018/08/15 00:30 LEAS 150030Z AUTO 14004KT 8000 2000 NCD 18/16 Q1022
 
LECO - La Coruna/Alvedr, Spain
Distance from station: ONO 222km
Actualización: 15/08/2018 02:30
Despejado
Despejado
 Viento del varies
Viento: varies 2 km/h
Temperatura: 17°C
Rocío: 15°C
Humedad: 88%
Barómetro: 1020 hPa
Clouds: Despejado
Visibility: 10 km
2018/08/15 00:30 LECO 150030Z AUTO VRB01KT 9999 NCD 17/15 Q1020
LEVX - Vigo/Peinador, Spain
Distance from station: O 214km
Actualización: 15/08/2018 02:30
Despejado
Despejado
 Viento del varies
Viento: varies 2 km/h
Temperatura: 22°C
Rocío: 17°C
Humedad: 73%
Barómetro: 1017 hPa
Resumen: Despejado
Visibility: greater than 10 km
2018/08/15 00:30 LEVX 150030Z VRB01KT CAVOK 22/17 Q1017 NOSIG